createdAt,value
2022-11-16T00:01:53.390Z,7.00
2022-11-16T00:05:01.784Z,7.00
2022-11-16T00:08:10.187Z,6.90
2022-11-16T00:11:19.185Z,7.00
2022-11-16T00:14:31.457Z,7.00
2022-11-16T00:17:39.746Z,7.00
2022-11-16T00:20:48.105Z,7.00
2022-11-16T00:23:56.424Z,7.00
2022-11-16T00:27:04.928Z,7.00
2022-11-16T00:30:15.418Z,7.00
2022-11-16T00:33:24.100Z,7.00
2022-11-16T00:36:32.347Z,7.00
2022-11-16T00:39:40.784Z,7.00
2022-11-16T00:42:49.082Z,7.00
2022-11-16T00:45:58.740Z,7.00
2022-11-16T00:49:07.688Z,7.00
2022-11-16T00:52:16.065Z,7.00
2022-11-16T00:55:26.306Z,7.00
2022-11-16T00:58:34.882Z,7.00
2022-11-16T01:01:49.142Z,7.00
2022-11-16T01:04:58.050Z,7.00
2022-11-16T01:08:06.734Z,7.00
2022-11-16T01:11:33.548Z,7.00
2022-11-16T01:14:45.605Z,7.00
2022-11-16T01:17:56.953Z,7.00
2022-11-16T01:21:07.651Z,7.00
2022-11-16T01:24:16.138Z,7.00
2022-11-16T01:27:24.440Z,7.00
2022-11-16T01:30:33.537Z,7.00
2022-11-16T01:33:47.511Z,7.00
2022-11-16T01:37:01.864Z,7.00
2022-11-16T01:40:15.236Z,7.00
2022-11-16T01:43:27.194Z,7.00
2022-11-16T01:46:43.413Z,6.90
2022-11-16T01:50:00.676Z,6.90
2022-11-16T01:53:14.669Z,6.90
2022-11-16T01:56:34.015Z,6.90
2022-11-16T01:59:53.966Z,6.90
2022-11-16T02:03:04.298Z,6.90
2022-11-16T02:06:45.994Z,6.90
2022-11-16T02:10:11.407Z,6.90
2022-11-16T02:13:32.048Z,6.90
2022-11-16T02:16:48.230Z,6.90
2022-11-16T02:20:28.322Z,6.90
2022-11-16T02:24:24.803Z,6.90
2022-11-16T02:27:58.189Z,6.90
2022-11-16T02:31:11.775Z,6.90
2022-11-16T02:34:22.948Z,6.90
2022-11-16T02:37:35.499Z,6.90
2022-11-16T02:40:49.517Z,7.00
2022-11-16T02:44:07.394Z,7.00
2022-11-16T02:47:21.471Z,7.00
2022-11-16T02:50:33.214Z,7.00
2022-11-16T02:53:53.502Z,7.00
2022-11-16T02:57:27.515Z,7.00
2022-11-16T03:00:43.747Z,7.00
2022-11-16T03:04:00.138Z,7.00
2022-11-16T03:07:13.838Z,7.00
2022-11-16T03:10:37.850Z,7.00
2022-11-16T03:13:49.763Z,7.00
2022-11-16T03:16:59.613Z,7.00
2022-11-16T03:20:14.653Z,7.00
2022-11-16T03:23:24.082Z,7.00
2022-11-16T03:26:38.191Z,7.00
2022-11-16T03:29:56.546Z,7.00
2022-11-16T03:33:10.042Z,7.00
2022-11-16T03:36:26.036Z,6.90
2022-11-16T03:39:38.952Z,6.90
2022-11-16T03:42:50.120Z,6.90
2022-11-16T03:45:59.266Z,6.80
2022-11-16T03:49:07.904Z,6.80
2022-11-16T03:52:20.009Z,6.70
2022-11-16T03:55:30.446Z,6.70
2022-11-16T03:58:39.942Z,6.70
2022-11-16T04:01:48.395Z,6.70
2022-11-16T04:05:14.634Z,6.70
2022-11-16T04:08:41.686Z,6.70
2022-11-16T04:12:07.623Z,6.70
2022-11-16T04:15:35.441Z,6.70
2022-11-16T04:19:10.133Z,6.70
2022-11-16T04:22:39.639Z,6.70
2022-11-16T04:25:51.754Z,6.80
2022-11-16T04:28:59.110Z,6.80
2022-11-16T04:32:26.129Z,6.80
2022-11-16T04:35:51.823Z,6.80
2022-11-16T04:39:00.273Z,6.80
2022-11-16T04:42:19.838Z,6.80
2022-11-16T04:45:49.048Z,6.70
2022-11-16T04:48:59.880Z,6.70
2022-11-16T04:52:10.039Z,6.70
2022-11-16T04:55:19.576Z,6.70
2022-11-16T04:58:31.287Z,6.70
2022-11-16T05:01:57.466Z,6.70
2022-11-16T05:05:06.741Z,6.70
2022-11-16T05:08:16.247Z,6.70
2022-11-16T05:11:26.612Z,6.70
2022-11-16T05:14:37.725Z,6.60
2022-11-16T05:17:46.188Z,6.70
2022-11-16T05:21:00.771Z,6.60
2022-11-16T05:24:29.673Z,6.60
2022-11-16T05:27:38.787Z,6.60
2022-11-16T05:30:49.097Z,6.60
2022-11-16T05:34:01.812Z,6.60
2022-11-16T05:37:10.408Z,6.60
2022-11-16T05:40:19.071Z,6.60
2022-11-16T05:43:36.803Z,6.60
2022-11-16T05:47:00.905Z,6.60
2022-11-16T05:50:10.757Z,6.50
2022-11-16T05:53:22.093Z,6.50
2022-11-16T05:56:31.057Z,6.50
2022-11-16T05:59:39.925Z,6.50
2022-11-16T06:02:50.255Z,6.50
2022-11-16T06:06:09.836Z,6.50
2022-11-16T06:09:18.255Z,6.60
2022-11-16T06:12:27.755Z,6.60
2022-11-16T06:15:38.423Z,6.50
2022-11-16T06:18:50.556Z,6.60
2022-11-16T06:22:00.196Z,6.60
2022-11-16T06:25:11.933Z,6.60
2022-11-16T06:28:24.030Z,6.60
2022-11-16T06:31:32.838Z,6.60
2022-11-16T06:34:44.537Z,6.70
2022-11-16T06:37:53.827Z,6.80
2022-11-16T06:41:02.594Z,6.80
2022-11-16T06:44:13.742Z,6.80
2022-11-16T06:47:32.388Z,6.80
2022-11-16T06:50:43.693Z,6.80
2022-11-16T06:53:52.213Z,6.80
2022-11-16T06:57:01.976Z,6.80
2022-11-16T07:00:12.504Z,6.80
2022-11-16T07:03:20.861Z,6.80
2022-11-16T07:06:31.165Z,6.80
2022-11-16T07:09:40.018Z,6.80
2022-11-16T07:12:49.283Z,6.80
2022-11-16T07:16:03.663Z,6.70
2022-11-16T07:19:12.020Z,6.80
2022-11-16T07:22:26.502Z,6.80
2022-11-16T07:25:47.687Z,6.80
2022-11-16T07:29:11.483Z,6.80
2022-11-16T07:32:26.062Z,6.80
2022-11-16T07:35:46.193Z,6.90
2022-11-16T07:38:58.638Z,6.90
2022-11-16T07:42:11.633Z,6.90
2022-11-16T07:45:45.940Z,6.90
2022-11-16T07:48:54.328Z,6.90
2022-11-16T07:52:27.114Z,6.90
2022-11-16T07:55:53.462Z,6.90
2022-11-16T07:59:02.877Z,6.90
2022-11-16T08:02:15.483Z,6.90
2022-11-16T08:05:25.218Z,6.90
2022-11-16T08:08:34.327Z,6.90
2022-11-16T08:11:44.889Z,6.90
2022-11-16T08:14:54.085Z,6.90
2022-11-16T08:18:03.173Z,6.90
2022-11-16T08:21:13.919Z,6.90
2022-11-16T08:24:22.650Z,7.00
2022-11-16T08:27:32.738Z,7.00
2022-11-16T08:30:42.453Z,7.00
2022-11-16T08:33:51.799Z,7.10
2022-11-16T08:37:00.280Z,7.00
2022-11-16T08:40:18.655Z,7.10
2022-11-16T08:43:31.149Z,7.10
2022-11-16T08:46:40.198Z,7.10
2022-11-16T08:49:57.942Z,7.20
2022-11-16T08:53:08.634Z,7.10
2022-11-16T08:56:18.256Z,7.10
2022-11-16T08:59:28.027Z,7.20
2022-11-16T09:02:40.655Z,7.20
2022-11-16T09:05:49.006Z,7.20
2022-11-16T09:08:57.897Z,7.20
2022-11-16T09:12:06.854Z,7.20
2022-11-16T09:15:19.202Z,7.30
2022-11-16T09:18:28.422Z,7.30
2022-11-16T09:21:37.673Z,9.80
2022-11-16T09:24:46.000Z,8.60
2022-11-16T09:27:56.647Z,7.90
2022-11-16T09:31:07.301Z,7.70
2022-11-16T09:34:15.563Z,7.60
2022-11-16T09:37:23.885Z,7.60
2022-11-16T09:40:35.401Z,7.60
2022-11-16T09:43:53.697Z,7.70
2022-11-16T09:47:03.956Z,7.80
2022-11-16T09:50:25.690Z,7.90
2022-11-16T09:53:38.671Z,8.00
2022-11-16T09:56:50.272Z,8.20
2022-11-16T10:00:03.265Z,8.10
2022-11-16T10:03:22.273Z,8.10
2022-11-16T10:06:42.964Z,8.20
2022-11-16T10:09:51.599Z,8.30
2022-11-16T10:13:05.982Z,8.50
2022-11-16T10:16:18.080Z,8.50
2022-11-16T10:19:36.185Z,8.80
2022-11-16T10:22:53.778Z,8.80
2022-11-16T10:26:13.789Z,9.00
2022-11-16T10:29:39.536Z,9.20
2022-11-16T10:32:52.002Z,9.30
2022-11-16T10:36:02.919Z,9.20
2022-11-16T10:39:15.602Z,9.10
2022-11-16T10:42:29.820Z,9.10
2022-11-16T10:45:44.212Z,9.30
2022-11-16T10:49:03.213Z,9.30
2022-11-16T10:52:13.082Z,9.30
2022-11-16T10:55:22.931Z,9.30
2022-11-16T10:58:51.113Z,9.00
2022-11-16T11:02:01.411Z,9.00
2022-11-16T11:05:20.135Z,9.00
2022-11-16T11:08:31.747Z,9.00
2022-11-16T11:11:57.751Z,9.20
2022-11-16T11:15:25.291Z,9.40
2022-11-16T11:18:34.530Z,9.20
2022-11-16T11:21:42.913Z,9.20
2022-11-16T11:24:52.867Z,9.20
2022-11-16T11:28:08.064Z,9.10
2022-11-16T11:31:25.918Z,8.90
2022-11-16T11:34:41.649Z,8.90
2022-11-16T11:37:53.936Z,8.90
2022-11-16T11:41:05.634Z,8.90
2022-11-16T11:44:17.683Z,9.00
2022-11-16T11:47:57.233Z,9.00
2022-11-16T11:51:14.872Z,9.10
2022-11-16T11:54:27.079Z,9.10
2022-11-16T11:57:40.783Z,9.00
2022-11-16T12:01:05.366Z,9.00
2022-11-16T12:04:42.397Z,8.90
2022-11-16T12:08:14.857Z,8.90
2022-11-16T12:11:33.295Z,8.90
2022-11-16T12:14:57.628Z,8.90
2022-11-16T12:18:20.982Z,8.80
2022-11-16T12:21:43.172Z,8.90
2022-11-16T12:25:00.114Z,8.90
2022-11-16T12:28:21.666Z,9.00
2022-11-16T12:31:57.675Z,8.80
2022-11-16T12:35:32.142Z,8.80
2022-11-16T12:38:50.963Z,8.90
2022-11-16T12:42:18.226Z,8.80
2022-11-16T12:46:02.547Z,8.80
2022-11-16T12:49:49.365Z,8.60
2022-11-16T12:53:14.090Z,8.60
2022-11-16T12:56:31.597Z,8.50
2022-11-16T13:00:02.143Z,8.40
2022-11-16T13:03:16.584Z,8.30
2022-11-16T13:06:30.882Z,8.30
2022-11-16T13:09:44.221Z,8.30
2022-11-16T13:13:21.998Z,8.30
2022-11-16T13:16:27.126Z,8.30
2022-11-16T13:19:40.980Z,8.30
2022-11-16T13:22:56.840Z,8.40
2022-11-16T13:26:13.370Z,8.40
2022-11-16T13:29:31.381Z,8.40
2022-11-16T13:32:50.447Z,8.40
2022-11-16T13:35:58.752Z,8.30
2022-11-16T13:39:08.581Z,8.30
2022-11-16T13:42:18.724Z,8.30
2022-11-16T13:45:32.136Z,8.20
2022-11-16T13:48:47.083Z,8.20
2022-11-16T13:52:07.000Z,8.10
2022-11-16T13:55:31.046Z,8.00
2022-11-16T13:58:46.903Z,7.90
2022-11-16T14:02:01.049Z,7.90
2022-11-16T14:05:17.562Z,7.80
2022-11-16T14:08:52.117Z,7.80
2022-11-16T14:12:38.763Z,7.80
2022-11-16T14:16:27.707Z,7.70
2022-11-16T14:19:57.005Z,7.70
2022-11-16T14:23:17.482Z,7.60
2022-11-16T14:26:36.803Z,7.60
2022-11-16T14:29:56.863Z,7.50
2022-11-16T14:33:06.687Z,7.50
2022-11-16T14:36:16.402Z,7.40
2022-11-16T14:39:37.847Z,7.40
2022-11-16T14:43:15.579Z,7.40
2022-11-16T14:46:23.763Z,7.30
2022-11-16T14:49:36.922Z,7.20
2022-11-16T14:52:47.619Z,7.20
2022-11-16T14:56:07.609Z,7.10
2022-11-16T14:59:18.254Z,7.10
2022-11-16T15:02:28.568Z,7.00
2022-11-16T15:05:39.135Z,7.00
2022-11-16T15:08:51.395Z,6.90
2022-11-16T15:12:19.566Z,6.90
2022-11-16T15:15:29.323Z,6.90
2022-11-16T15:18:37.811Z,6.80
2022-11-16T15:21:54.704Z,6.90
2022-11-16T15:25:03.192Z,6.80
2022-11-16T15:28:17.166Z,6.70
2022-11-16T15:31:25.958Z,6.70
2022-11-16T15:34:35.124Z,6.70
2022-11-16T15:37:44.842Z,6.70
2022-11-16T15:40:55.014Z,6.70
2022-11-16T15:44:15.195Z,6.60
2022-11-16T15:47:25.172Z,6.60
2022-11-16T15:50:33.664Z,6.60
2022-11-16T15:53:45.071Z,6.60
2022-11-16T15:56:56.397Z,6.60
2022-11-16T16:00:05.365Z,6.60
2022-11-16T16:03:23.232Z,6.50
2022-11-16T16:06:49.378Z,6.50
2022-11-16T16:10:15.016Z,6.40
2022-11-16T16:13:29.007Z,6.40
2022-11-16T16:16:37.894Z,6.30
2022-11-16T16:19:47.702Z,6.30
2022-11-16T16:23:07.133Z,6.20
2022-11-16T16:26:17.678Z,6.20
2022-11-16T16:29:28.258Z,6.20
2022-11-16T16:32:39.342Z,6.10
2022-11-16T16:35:51.019Z,6.00
2022-11-16T16:39:03.956Z,6.00
2022-11-16T16:42:16.379Z,6.00
2022-11-16T16:45:39.084Z,6.00
2022-11-16T16:48:48.896Z,5.90
2022-11-16T16:51:58.484Z,5.90
2022-11-16T16:55:08.721Z,5.90
2022-11-16T16:58:19.984Z,5.90
2022-11-16T17:01:31.866Z,5.80
2022-11-16T17:04:43.486Z,5.90
2022-11-16T17:07:55.882Z,5.80
2022-11-16T17:11:05.985Z,5.80
2022-11-16T17:14:18.390Z,5.70
2022-11-16T17:17:27.957Z,5.70
2022-11-16T17:20:41.341Z,5.70
2022-11-16T17:23:54.082Z,5.60
2022-11-16T17:27:03.629Z,5.60
2022-11-16T17:30:19.286Z,5.60
2022-11-16T17:33:29.303Z,5.60
2022-11-16T17:36:41.485Z,5.50
2022-11-16T17:39:51.263Z,5.50
2022-11-16T17:43:01.316Z,5.50
2022-11-16T17:46:18.992Z,5.40
2022-11-16T17:49:28.848Z,5.40
2022-11-16T17:52:38.948Z,5.40
2022-11-16T17:55:49.059Z,5.40
2022-11-16T17:58:59.630Z,5.40
2022-11-16T18:02:12.848Z,5.40
2022-11-16T18:05:22.639Z,5.30
2022-11-16T18:08:35.561Z,5.30
2022-11-16T18:11:47.658Z,5.20
2022-11-16T18:15:21.715Z,5.20
2022-11-16T18:18:28.800Z,5.30
2022-11-16T18:21:41.561Z,5.30
2022-11-16T18:24:51.430Z,5.40
2022-11-16T18:28:01.265Z,5.30
2022-11-16T18:31:13.373Z,5.30
2022-11-16T18:34:24.375Z,5.30
2022-11-16T18:37:33.522Z,5.30
2022-11-16T18:40:42.604Z,5.40
2022-11-16T18:43:53.670Z,5.40
2022-11-16T18:47:03.193Z,5.40
2022-11-16T18:50:20.027Z,5.30
2022-11-16T18:53:33.156Z,5.30
2022-11-16T18:56:41.844Z,5.30
2022-11-16T18:59:50.195Z,5.30
2022-11-16T19:02:58.466Z,5.20
2022-11-16T19:06:10.100Z,5.10
2022-11-16T19:09:18.398Z,5.00
2022-11-16T19:12:26.811Z,5.00
2022-11-16T19:15:36.094Z,4.90
2022-11-16T19:18:44.541Z,4.90
2022-11-16T19:21:56.377Z,4.80
2022-11-16T19:25:06.126Z,4.80
2022-11-16T19:28:14.608Z,4.80
2022-11-16T19:31:24.724Z,4.70
2022-11-16T19:34:33.567Z,4.70
2022-11-16T19:37:43.586Z,4.70
2022-11-16T19:40:52.024Z,4.60
2022-11-16T19:44:01.923Z,4.60
2022-11-16T19:47:10.380Z,4.50
2022-11-16T19:50:18.726Z,4.50
2022-11-16T19:53:28.558Z,4.50
2022-11-16T19:56:36.918Z,4.40
2022-11-16T19:59:45.201Z,4.30
2022-11-16T20:02:57.834Z,4.30
2022-11-16T20:06:08.258Z,4.20
2022-11-16T20:09:17.973Z,4.30
2022-11-16T20:12:26.233Z,4.20
2022-11-16T20:15:34.606Z,4.20
2022-11-16T20:18:44.280Z,4.20
2022-11-16T20:21:53.493Z,4.10
2022-11-16T20:25:03.200Z,4.20
2022-11-16T20:28:11.502Z,4.30
2022-11-16T20:31:21.471Z,4.20
2022-11-16T20:34:29.825Z,4.20
2022-11-16T20:37:38.212Z,4.10
2022-11-16T20:40:47.935Z,4.10
2022-11-16T20:43:57.725Z,4.10
2022-11-16T20:47:06.473Z,4.10
2022-11-16T20:50:14.817Z,4.10
2022-11-16T20:53:23.135Z,4.10
2022-11-16T20:56:32.812Z,4.00
2022-11-16T20:59:41.107Z,4.00
2022-11-16T21:02:49.441Z,4.10
2022-11-16T21:05:58.929Z,4.10
2022-11-16T21:09:07.255Z,4.10
2022-11-16T21:12:35.793Z,4.20
2022-11-16T21:15:55.632Z,4.20
2022-11-16T21:19:04.744Z,4.20
2022-11-16T21:22:13.038Z,4.20
2022-11-16T21:25:21.381Z,4.20
2022-11-16T21:28:31.129Z,4.30
2022-11-16T21:31:39.443Z,4.30
2022-11-16T21:34:47.768Z,4.30
2022-11-16T21:37:56.074Z,4.30
2022-11-16T21:41:06.294Z,4.30
2022-11-16T21:44:15.999Z,4.30
2022-11-16T21:47:24.369Z,4.30
2022-11-16T21:50:32.728Z,4.40
2022-11-16T21:53:41.477Z,4.40
2022-11-16T21:56:49.797Z,4.40
2022-11-16T22:00:01.054Z,4.40
2022-11-16T22:03:09.354Z,4.50
2022-11-16T22:06:35.587Z,4.40
2022-11-16T22:09:43.909Z,4.40
2022-11-16T22:12:52.246Z,4.30
2022-11-16T22:16:05.327Z,4.30
2022-11-16T22:19:13.636Z,4.30
2022-11-16T22:22:22.326Z,4.20
2022-11-16T22:25:30.770Z,4.20
2022-11-16T22:28:39.681Z,4.20
2022-11-16T22:31:49.319Z,4.10
2022-11-16T22:34:57.639Z,4.10
2022-11-16T22:38:06.319Z,4.00
2022-11-16T22:41:14.604Z,4.00
2022-11-16T22:44:22.882Z,4.00
2022-11-16T22:47:33.495Z,4.00
2022-11-16T22:50:42.101Z,4.00
2022-11-16T22:53:54.225Z,4.00
2022-11-16T22:57:03.348Z,4.00
2022-11-16T23:00:13.773Z,4.00
2022-11-16T23:03:23.513Z,4.00
2022-11-16T23:06:32.102Z,4.00
2022-11-16T23:09:40.383Z,4.00
2022-11-16T23:13:05.912Z,4.00
2022-11-16T23:16:14.183Z,3.90
2022-11-16T23:19:41.956Z,3.90
2022-11-16T23:23:21.892Z,3.90
2022-11-16T23:26:47.563Z,3.90
2022-11-16T23:29:56.097Z,3.90
2022-11-16T23:33:05.116Z,3.90
2022-11-16T23:36:15.393Z,3.90
2022-11-16T23:39:23.636Z,3.80
2022-11-16T23:42:48.955Z,3.80
2022-11-16T23:45:57.186Z,3.80
2022-11-16T23:49:05.477Z,3.90
2022-11-16T23:52:15.392Z,3.90
2022-11-16T23:55:24.213Z,3.90
2022-11-16T23:58:32.438Z,3.90
